.
WxDataArchive / Data Records for 2007-07-07
2007-07-06 July 2007 2007-07-08

Data Records for Saturday, 07 July 2007

Time	Temp	Chill	HIndex	Humid	Dewpt	 Wind 	HiWind	WindDir	Rain 	Barom 
-----	----	-----	------	-----	-----	------	------	-------	-----	----- 
00:00	66.3	66.3	66.3	68	55.4	0	0	---	0.00	29.955 
00:05	66.0	66.0	66.0	69	55.5	0	0	---	0.00	29.953 
00:10	65.5	65.5	65.5	70	55.4	0	0	---	0.00	29.952 
00:15	65.0	65.0	65.0	70	55.0	0	0	---	0.00	29.954 
00:20	64.7	64.7	64.7	72	55.5	0	0	---	0.00	29.954 
00:25	64.2	64.2	64.2	73	55.4	0	0	---	0.00	29.953 
00:30	63.9	63.9	63.9	74	55.4	0	0	---	0.00	29.951 
00:35	63.5	63.5	63.5	75	55.4	0	0	---	0.00	29.949 
00:40	63.2	63.2	63.2	76	55.5	0	0	---	0.00	29.948 
00:45	62.9	62.9	62.9	76	55.2	0	0	---	0.00	29.945 
00:50	62.6	62.6	62.6	77	55.3	0	0	---	0.00	29.945 
00:55	62.3	62.3	62.3	77	55.0	0	0	---	0.00	29.946 
01:00	62.0	62.0	62.0	78	55.1	0	0	---	0.00	29.945 
01:05	61.8	61.8	61.8	78	54.9	0	0	---	0.00	29.943 
01:10	61.5	61.5	61.5	79	54.9	0	0	---	0.00	29.945 
01:15	61.3	61.3	61.3	80	55.1	0	0	---	0.00	29.945 
01:20	61.2	61.2	61.2	80	55.0	0	0	---	0.00	29.949 
01:25	60.9	60.9	60.9	81	55.0	0	0	---	0.00	29.950 
01:30	60.7	60.7	60.7	81	54.8	0	0	---	0.00	29.950 
01:35	60.5	60.5	60.5	82	55.0	0	0	---	0.00	29.948 
01:40	60.4	60.4	60.4	83	55.2	0	0	---	0.00	29.946 
01:45	60.4	60.4	60.4	82	54.9	0	0	---	0.00	29.945 
01:50	60.2	60.2	60.2	82	54.7	0	0	---	0.00	29.946 
01:55	60.1	60.1	60.1	83	54.9	0	0	---	0.00	29.946 
02:00	59.9	59.9	59.9	84	55.0	0	0	---	0.00	29.947 
02:05	59.8	59.8	59.8	85	55.3	0	0	---	0.00	29.949 
02:10	59.6	59.6	59.6	85	55.1	0	0	---	0.00	29.948 
02:15	59.5	59.5	59.5	86	55.3	0	0	---	0.00	29.945 
02:20	59.3	59.3	59.3	86	55.1	0	0	---	0.00	29.945 
02:25	59.2	59.2	59.2	86	55.0	0	0	---	0.00	29.945 
02:30	59.0	59.0	59.0	86	54.8	0	0	---	0.00	29.944 
02:35	58.9	58.9	58.9	87	55.0	0	0	---	0.00	29.943 
02:40	58.9	58.9	58.9	87	55.0	0	0	---	0.00	29.942 
02:45	58.9	58.9	58.9	87	55.0	0	0	---	0.00	29.942 
02:50	58.9	58.9	58.9	87	55.0	0	0	---	0.00	29.941 
02:55	58.9	58.9	58.9	87	55.0	0	0	---	0.00	29.941 
03:00	58.7	58.7	58.7	87	54.8	0	0	---	0.00	29.940 
03:05	58.6	58.6	58.6	87	54.7	0	0	---	0.00	29.941 
03:10	58.4	58.4	58.4	87	54.5	0	0	---	0.00	29.943 
03:15	58.3	58.3	58.3	88	54.8	0	0	---	0.00	29.944 
03:20	58.3	58.3	58.3	88	54.8	0	0	---	0.00	29.945 
03:25	58.1	58.1	58.1	88	54.6	0	0	---	0.00	29.945 
03:30	58.0	58.0	58.0	88	54.5	0	0	---	0.00	29.946 
03:35	57.8	57.8	57.8	88	54.3	0	0	---	0.00	29.945 
03:40	57.8	57.8	57.8	89	54.6	0	0	---	0.00	29.946 
03:45	57.6	57.6	57.6	89	54.4	0	0	---	0.00	29.947 
03:50	57.6	57.6	57.6	89	54.4	0	0	---	0.00	29.948 
03:55	57.6	57.6	57.6	89	54.4	0	0	---	0.00	29.950 
04:00	57.6	57.6	57.6	90	54.7	0	0	---	0.00	29.948 
04:05	57.6	57.6	57.6	90	54.7	0	0	---	0.00	29.949 
04:10	57.5	57.5	57.5	89	54.3	0	0	---	0.00	29.949 
04:15	57.3	57.3	57.3	89	54.1	0	0	---	0.00	29.949 
04:20	57.3	57.3	57.3	90	54.4	0	0	---	0.00	29.951 
04:25	57.2	57.2	57.2	90	54.3	0	0	---	0.00	29.955 
04:30	57.0	57.0	57.0	90	54.1	0	0	---	0.00	29.955 
04:35	56.9	56.9	56.9	90	54.0	0	0	---	0.00	29.953 
04:40	56.7	56.7	56.7	90	53.8	0	0	---	0.00	29.952 
04:45	56.6	56.6	56.6	90	53.7	0	0	---	0.00	29.950 
04:50	56.6	56.6	56.6	91	54.0	0	0	---	0.00	29.949 
04:55	56.6	56.6	56.6	92	54.3	0	0	---	0.00	29.949 
05:00	56.6	56.6	56.6	92	54.3	0	0	---	0.00	29.950 
05:05	56.6	56.6	56.6	93	54.6	0	0	---	0.00	29.951 
05:10	56.7	56.7	56.7	93	54.7	0	0	---	0.00	29.955 
05:15	56.7	56.7	56.7	93	54.7	0	0	---	0.00	29.955 
05:20	56.6	56.6	56.6	93	54.6	0	0	---	0.00	29.955 
05:25	56.6	56.6	56.6	93	54.6	0	0	---	0.00	29.955 
05:30	56.5	56.5	56.5	93	54.5	0	0	---	0.00	29.955 
05:35	56.5	56.5	56.5	93	54.5	0	0	---	0.00	29.954 
05:40	56.5	56.5	56.5	93	54.5	0	0	---	0.00	29.953 
05:45	56.6	56.6	56.6	93	54.6	0	0	---	0.00	29.956 
05:50	56.6	56.6	56.6	94	54.9	0	0	---	0.00	29.955 
05:55	56.6	56.6	56.6	94	54.9	0	0	---	0.00	29.955 
06:00	56.7	56.7	56.7	94	55.0	0	0	---	0.00	29.957 
06:05	56.9	56.9	56.9	94	55.2	0	0	---	0.00	29.956 
06:10	57.2	57.2	57.2	94	55.5	0	0	---	0.00	29.955 
06:15	57.5	57.5	57.5	94	55.8	0	0	---	0.00	29.957 
06:20	57.8	57.8	57.8	93	55.8	0	0	---	0.00	29.955 
06:25	58.3	58.3	58.3	93	56.3	0	0	---	0.00	29.954 
06:30	59.0	59.0	59.0	93	57.0	0	0	---	0.00	29.951 
06:35	59.8	59.8	59.8	91	57.2	0	0	---	0.00	29.952 
06:40	60.5	60.5	60.5	89	57.2	0	0	---	0.00	29.956 
06:45	61.3	61.3	61.3	87	57.4	0	0	---	0.00	29.957 
06:50	62.3	62.3	62.3	84	57.4	0	0	---	0.00	29.958 
06:55	63.2	63.2	63.2	81	57.3	0	0	---	0.00	29.957 
07:00	64.2	64.2	64.2	78	57.2	0	0	---	0.00	29.957 
07:05	65.2	65.2	65.2	76	57.4	0	0	---	0.00	29.959 
07:10	65.8	65.8	65.8	73	56.9	0	0	---	0.00	29.957 
07:15	66.4	66.4	66.4	71	56.7	0	0	---	0.00	29.957 
07:20	67.1	67.1	67.1	72	57.8	0	0	---	0.00	29.958 
07:25	67.8	67.8	67.8	68	56.8	0	0	---	0.00	29.957 
07:30	68.6	68.6	68.6	68	57.6	0	1	315	0.00	29.956 
07:35	69.4	69.4	69.4	66	57.5	0	0	---	0.00	29.957 
07:40	70.3	70.3	70.3	65	58.0	0	0	---	0.00	29.956 
07:45	70.9	70.9	70.9	65	58.5	0	0	---	0.00	29.955 
07:50	71.5	71.5	71.5	63	58.2	0	0	---	0.00	29.957 
07:55	72.1	72.1	72.1	61	57.9	0	1	315	0.00	29.956 
08:00	72.7	72.7	72.7	61	58.5	0	1	315	0.00	29.956 
08:05	73.3	73.3	73.3	60	58.6	0	1	315	0.00	29.960 
08:10	73.9	73.9	73.9	58	58.2	0	1	315	0.00	29.959 
08:15	74.0	74.0	74.0	58	58.3	0	1	315	0.00	29.961 
08:20	74.6	74.6	74.6	54	56.8	0	1	315	0.00	29.961 
08:25	75.3	75.3	77.7	54	57.5	0	2	315	0.00	29.961 
08:30	75.8	75.8	78.0	48	54.7	0	1	315	0.00	29.965 
08:35	76.3	76.3	78.2	49	55.7	0	1	315	0.00	29.963 
08:40	76.8	76.8	78.4	46	54.4	0	1	315	0.00	29.962 
08:45	77.7	77.7	78.8	45	54.6	0	1	315	0.00	29.963 
08:50	78.1	78.1	78.8	41	52.5	0	2	292	0.00	29.964 
08:55	78.1	78.1	78.8	41	52.5	1	3	292	0.00	29.965 
09:00	78.3	78.3	79.1	44	54.6	0	2	315	0.00	29.964 
09:05	78.5	78.5	79.1	41	52.8	0	3	315	0.00	29.964 
09:10	78.6	78.6	79.3	44	54.8	0	2	315	0.00	29.963 
09:15	78.5	78.5	79.2	43	54.1	1	2	315	0.00	29.963 
09:20	79.0	79.0	79.3	40	52.6	0	1	315	0.00	29.959 
09:25	79.8	79.8	79.6	38	51.9	0	1	315	0.00	29.954 
09:30	80.3	80.3	79.8	36	50.9	1	3	315	0.00	29.954 
09:35	80.7	80.7	80.1	36	51.2	0	2	22	0.00	29.954 
09:40	81.2	81.2	80.4	36	51.7	0	2	338	0.00	29.953 
09:45	81.2	81.2	80.3	35	50.9	1	2	338	0.00	29.953 
09:50	81.4	81.4	80.5	35	51.1	0	2	338	0.00	29.952 
09:55	81.4	81.4	80.5	35	51.1	1	3	315	0.00	29.952 
10:00	82.0	82.0	80.9	35	51.6	1	3	45	0.00	29.950 
10:05	82.6	82.6	81.2	33	50.6	0	2	225	0.00	29.954 
10:10	83.4	83.4	81.7	32	50.4	1	2	180	0.00	29.952 
10:15	83.2	83.2	81.4	30	48.5	1	2	270	0.00	29.951 
10:20	83.6	83.6	81.6	29	48.0	1	3	270	0.00	29.950 
10:25	84.1	84.1	81.9	28	47.4	1	3	315	0.00	29.948 
10:30	84.1	84.1	81.9	28	47.4	1	4	338	0.00	29.944 
10:35	84.3	84.3	82.3	30	49.5	1	4	90	0.00	29.945 
10:40	84.5	84.5	82.2	28	47.8	1	4	90	0.00	29.946 
10:45	84.5	84.5	82.2	28	47.8	1	3	292	0.00	29.948 
10:50	84.3	84.3	82.3	30	49.5	1	3	292	0.00	29.947 
10:55	84.3	84.3	82.2	29	48.5	0	2	292	0.00	29.943 
11:00	84.3	84.3	82.3	30	49.5	1	4	315	0.00	29.940 
11:05	84.3	84.3	82.6	33	52.0	1	2	0	0.00	29.941 
11:10	85.1	85.1	83.2	32	51.9	1	4	90	0.00	29.940 
11:15	85.5	85.5	83.4	31	51.4	1	3	135	0.00	29.937 
11:20	85.3	85.3	83.2	31	51.2	1	3	0	0.00	29.937 
11:25	85.1	85.1	83.3	33	52.7	0	2	0	0.00	29.936 
11:30	84.9	84.9	83.1	33	52.6	1	2	22	0.00	29.936 
11:35	85.1	85.1	83.1	31	51.0	1	4	90	0.00	29.931 
11:40	85.5	85.5	83.4	31	51.4	1	2	180	0.00	29.928 
11:45	86.3	86.3	83.8	28	49.3	1	4	90	0.00	29.926 
11:50	86.3	86.3	84.2	31	52.1	1	3	90	0.00	29.925 
11:55	86.3	86.3	84.5	33	53.8	1	2	158	0.00	29.924 
12:00	86.1	86.1	83.8	30	51.0	2	4	270	0.00	29.927 
12:05	85.9	85.9	83.8	31	51.7	1	3	248	0.00	29.927 
12:10	85.7	85.7	83.5	30	50.7	0	2	292	0.00	29.926 
12:15	86.3	86.3	84.0	30	51.2	1	3	90	0.00	29.924 
12:20	86.3	86.3	83.9	29	50.3	1	3	202	0.00	29.922 
12:25	86.5	86.5	84.1	29	50.4	1	3	0	0.00	29.918 
12:30	87.0	87.0	84.4	28	49.9	1	2	0	0.00	29.914 
12:35	87.2	87.2	84.6	28	50.1	1	3	0	0.00	29.916 
12:40	87.2	87.2	85.1	31	52.8	1	2	315	0.00	29.919 
12:45	87.4	87.4	85.0	29	51.2	0	1	315	0.00	29.915 
12:50	87.4	87.4	85.1	30	52.1	1	3	292	0.00	29.910 
12:55	86.5	86.5	84.1	29	50.4	2	6	270	0.00	29.910 
13:00	86.5	86.5	84.0	28	49.5	1	4	270	0.00	29.907 
13:05	86.7	86.7	84.6	31	52.4	2	4	315	0.00	29.905 
13:10	87.0	87.0	84.7	30	51.8	2	5	270	0.00	29.902 
13:15	87.0	87.0	84.9	31	52.7	1	3	248	0.00	29.897 
13:20	87.4	87.4	85.3	31	53.0	2	4	270	0.00	29.899 
13:25	87.4	87.4	85.0	29	51.2	1	3	338	0.00	29.896 
13:30	87.2	87.2	84.9	30	52.0	1	4	338	0.00	29.896 
13:35	87.4	87.4	85.1	30	52.1	1	4	248	0.00	29.894 
13:40	88.0	88.0	85.6	29	51.7	1	2	248	0.00	29.890 
13:45	88.8	88.8	86.2	28	51.4	1	4	248	0.00	29.890 
13:50	88.6	88.6	86.2	29	52.2	2	3	315	0.00	29.892 
13:55	88.0	88.0	85.6	29	51.7	2	5	315	0.00	29.892 
14:00	87.6	87.6	85.2	29	51.4	1	3	292	0.00	29.892 
14:05	87.6	87.6	85.7	32	54.1	1	3	292	0.00	29.893 
14:10	88.0	88.0	85.9	31	53.5	1	4	270	0.00	29.890 
14:15	88.0	88.0	85.7	30	52.6	1	3	292	0.00	29.889 
14:20	87.6	87.6	85.5	31	53.2	1	3	248	0.00	29.882 
14:25	87.8	87.8	86.3	34	55.9	2	4	270	0.00	29.885 
14:30	88.0	88.0	85.9	31	53.5	1	3	248	0.00	29.886 
14:35	87.4	87.4	85.1	30	52.1	1	3	248	0.00	29.882 
14:40	87.4	87.4	85.1	30	52.1	2	3	248	0.00	29.879 
14:45	87.8	87.8	85.7	31	53.4	2	4	270	0.00	29.880 
14:50	88.0	88.0	85.9	31	53.5	1	4	270	0.00	29.880 
14:55	88.0	88.0	85.9	31	53.5	1	2	292	0.00	29.879 
15:00	88.4	88.4	86.3	31	53.9	2	5	270	0.00	29.877 
15:05	88.0	88.0	85.7	30	52.6	2	5	315	0.00	29.878 
15:10	87.4	87.4	85.6	33	54.7	0	2	292	0.00	29.875 
15:15	87.8	87.8	85.9	32	54.2	1	4	292	0.00	29.869 
15:20	88.6	88.6	86.6	31	54.1	2	4	270	0.00	29.866 
15:25	88.6	88.6	86.2	29	52.2	2	5	248	0.00	29.864 
15:30	88.6	88.6	86.0	28	51.3	2	4	270	0.00	29.863 
15:35	88.4	88.4	86.3	31	53.9	1	4	270	0.00	29.861 
15:40	88.4	88.4	86.5	32	54.7	1	4	270	0.00	29.861 
15:45	88.6	88.6	86.7	32	54.9	1	3	248	0.00	29.861 
15:50	88.6	88.6	86.7	32	54.9	1	3	248	0.00	29.859 
15:55	88.6	88.6	86.6	31	54.1	2	5	270	0.00	29.859 
16:00	88.4	88.4	86.5	32	54.7	0	4	315	0.00	29.853 
16:05	89.0	89.0	87.2	32	55.3	0	2	315	0.00	29.854 
16:10	89.5	89.5	87.6	31	54.8	1	4	248	0.00	29.852 
16:15	89.0	89.0	86.8	30	53.5	1	4	270	0.00	29.851 
16:20	88.8	88.8	86.6	30	53.3	2	4	248	0.00	29.849 
16:25	89.0	89.0	86.8	30	53.5	1	3	225	0.00	29.848 
16:30	88.8	88.8	86.8	31	54.2	2	4	248	0.00	29.848 
16:35	88.6	88.6	86.4	30	53.2	1	3	248	0.00	29.847 
16:40	88.8	88.8	86.8	31	54.2	1	5	292	0.00	29.848 
16:45	88.6	88.6	86.6	31	54.1	1	4	315	0.00	29.849 
16:50	87.8	87.8	85.9	32	54.2	2	3	270	0.00	29.850 
16:55	87.6	87.6	85.8	33	54.9	2	3	248	0.00	29.850 
17:00	87.2	87.2	85.6	34	55.4	1	5	270	0.00	29.849 
17:05	87.2	87.2	85.4	33	54.6	2	5	292	0.00	29.849 
17:10	86.7	86.7	85.1	34	54.9	2	4	315	0.00	29.848 
17:15	87.0	87.0	85.2	33	54.4	1	2	315	0.00	29.848 
17:20	87.2	87.2	85.4	33	54.6	1	3	270	0.00	29.846 
17:25	87.2	87.2	85.4	33	54.6	1	4	270	0.00	29.842 
17:30	87.2	87.2	85.6	34	55.4	1	2	270	0.00	29.839 
17:35	87.2	87.2	85.2	32	53.7	2	5	270	0.00	29.837 
17:40	86.7	86.7	84.9	33	54.1	1	2	315	0.00	29.834 
17:45	86.5	86.5	84.7	33	53.9	1	4	248	0.00	29.834 
17:50	86.3	86.3	84.6	34	54.6	1	4	270	0.00	29.835 
17:55	86.1	86.1	84.6	35	55.2	1	3	270	0.00	29.835 
18:00	86.1	86.1	84.4	34	54.4	1	4	270	0.00	29.834 
18:05	85.9	85.9	84.2	34	54.2	1	4	248	0.00	29.828 
18:10	85.9	85.9	84.4	35	55.0	2	4	270	0.00	29.826 
18:15	85.9	85.9	84.2	34	54.2	1	2	270	0.00	29.822 
18:20	85.9	85.9	84.2	34	54.2	1	2	270	0.00	29.821 
18:25	85.7	85.7	84.0	34	54.1	1	3	248	0.00	29.823 
18:30	85.3	85.3	83.6	34	53.7	1	2	225	0.00	29.827 
18:35	85.3	85.3	83.6	34	53.7	1	2	248	0.00	29.825 
18:40	85.1	85.1	83.6	35	54.3	1	4	248	0.00	29.825 
18:45	84.9	84.9	83.4	35	54.2	1	3	248	0.00	29.825 
18:50	84.5	84.5	83.2	36	54.6	1	2	248	0.00	29.824 
18:55	84.3	84.3	83.3	38	55.9	1	2	248	0.00	29.822 
19:00	84.1	84.1	83.1	38	55.7	1	3	248	0.00	29.822 
19:05	84.1	84.1	83.1	38	55.7	1	4	270	0.00	29.818 
19:10	83.8	83.8	82.9	39	56.2	1	3	270	0.00	29.814 
19:15	83.6	83.6	82.8	39	56.0	1	3	248	0.00	29.813 
19:20	83.2	83.2	82.5	40	56.3	1	3	225	0.00	29.812 
19:25	83.0	83.0	82.3	40	56.2	1	3	225	0.00	29.817 
19:30	82.8	82.8	82.3	41	56.7	1	2	270	0.00	29.813 
19:35	82.6	82.6	82.1	41	56.5	0	1	270	0.00	29.811 
19:40	82.2	82.2	82.0	43	57.4	0	1	270	0.00	29.816 
19:45	82.0	82.0	81.7	42	56.6	0	1	270	0.00	29.817 
19:50	81.6	81.6	81.3	42	56.3	0	2	270	0.00	29.819 
19:55	81.6	81.6	81.5	43	56.9	1	2	270	0.00	29.817 
20:00	81.2	81.2	81.1	43	56.5	0	1	270	0.00	29.820 
20:05	81.1	81.1	81.1	44	57.1	0	1	270	0.00	29.817 
20:10	80.5	80.5	80.7	45	57.2	0	1	270	0.00	29.813 
20:15	80.1	80.1	80.5	46	57.4	0	1	270	0.00	29.811 
20:20	79.8	79.8	80.2	45	56.5	0	1	270	0.00	29.809 
20:25	79.6	79.6	80.0	45	56.4	0	1	270	0.00	29.809 
20:30	79.4	79.4	80.0	46	56.8	0	1	270	0.00	29.808 
20:35	79.2	79.2	79.8	46	56.6	0	1	270	0.00	29.810 
20:40	78.8	78.8	79.6	47	56.8	0	1	270	0.00	29.810 
20:45	78.5	78.5	79.4	47	56.6	0	1	270	0.00	29.810 
20:50	78.1	78.1	79.2	48	56.8	0	0	---	0.00	29.813 
20:55	77.4	77.4	78.8	49	56.7	0	0	---	0.00	29.814 
21:00	77.0	77.0	78.6	50	56.9	0	0	---	0.00	29.816 
21:05	76.7	76.7	78.4	50	56.6	0	0	---	0.00	29.816 
21:10	76.3	76.3	78.2	51	56.8	0	0	---	0.00	29.816 
21:15	76.0	76.0	78.1	52	57.1	0	0	---	0.00	29.818 
21:20	75.4	75.4	77.8	52	56.5	0	0	---	0.00	29.818 
21:25	75.1	75.1	77.6	54	57.3	0	0	---	0.00	29.822 
21:30	74.7	74.7	74.7	54	56.9	0	0	---	0.00	29.821 
21:35	74.4	74.4	74.4	55	57.2	0	0	---	0.00	29.818 
21:40	74.0	74.0	74.0	56	57.3	0	0	---	0.00	29.818 
21:45	73.7	73.7	73.7	56	57.0	0	0	---	0.00	29.820 
21:50	73.2	73.2	73.2	58	57.5	0	0	---	0.00	29.823 
21:55	72.8	72.8	72.8	59	57.6	0	0	---	0.00	29.825 
22:00	72.5	72.5	72.5	59	57.3	0	0	---	0.00	29.826 
22:05	72.1	72.1	72.1	60	57.4	0	0	---	0.00	29.825 
22:10	72.0	72.0	72.0	61	57.8	0	0	---	0.00	29.824 
22:15	71.6	71.6	71.6	61	57.4	0	0	---	0.00	29.825 
22:20	71.5	71.5	71.5	63	58.2	0	0	---	0.00	29.825 
22:25	70.9	70.9	70.9	63	57.7	0	0	---	0.00	29.826 
22:30	70.6	70.6	70.6	65	58.2	0	0	---	0.00	29.826 
22:35	70.3	70.3	70.3	65	58.0	0	0	---	0.00	29.826 
22:40	69.9	69.9	69.9	66	58.0	0	0	---	0.00	29.824 
22:45	69.6	69.6	69.6	67	58.1	0	0	---	0.00	29.825 
22:50	69.3	69.3	69.3	68	58.3	0	0	---	0.00	29.827 
22:55	69.1	69.1	69.1	69	58.5	0	0	---	0.00	29.827 
23:00	68.8	68.8	68.8	69	58.2	0	0	---	0.00	29.827 
23:05	68.6	68.6	68.6	70	58.4	0	0	---	0.00	29.824 
23:10	68.3	68.3	68.3	71	58.5	0	0	---	0.00	29.824 
23:15	67.9	67.9	67.9	71	58.1	0	0	---	0.00	29.824 
23:20	67.8	67.8	67.8	72	58.4	0	0	---	0.00	29.824 
23:25	67.6	67.6	67.6	72	58.2	0	0	---	0.00	29.824 
23:30	67.4	67.4	67.4	73	58.4	0	0	---	0.00	29.824 
23:35	67.3	67.3	67.3	73	58.3	0	0	---	0.00	29.824 
23:40	67.3	67.3	67.3	73	58.3	0	0	---	0.00	29.824 
23:45	67.1	67.1	67.1	74	58.5	0	0	---	0.00	29.822 
23:50	67.1	67.1	67.1	74	58.5	0	0	---	0.00	29.825 
23:55	66.9	66.9	66.9	74	58.3	0	0	---	0.00	29.824 

CoCoRaHS
IN-AL-39
A2 Web Hosting
Creative Commons License
GoDaddy
Look for:

loaded 2017-10-19 14:13:54 • last modified 2010-11-18 10:43:29
Privacy PolicyDisclaimer
• wx.awcolley.com is powered by PmWiki v.2002016 •
• all content (unless otherwise noted) © 2017 A W Colley